sensor_id;sensor_type;location;lat;lon;timestamp;P1;durP1;ratioP1;P2;durP2;ratioP2
43986;SDS011;29650;47.378;8.300;2023-11-21T00:01:31;10.32;;;3.15;;
43986;SDS011;29650;47.378;8.300;2023-11-21T00:03:59;4.25;;;2.33;;
43986;SDS011;29650;47.378;8.300;2023-11-21T00:06:28;9.02;;;2.80;;
43986;SDS011;29650;47.378;8.300;2023-11-21T00:08:55;11.55;;;3.00;;
43986;SDS011;29650;47.378;8.300;2023-11-21T00:11:23;8.93;;;2.65;;
43986;SDS011;29650;47.378;8.300;2023-11-21T00:13:50;9.30;;;2.20;;
43986;SDS011;29650;47.378;8.300;2023-11-21T00:16:17;9.52;;;2.90;;
43986;SDS011;29650;47.378;8.300;2023-11-21T00:18:44;12.65;;;2.60;;
43986;SDS011;29650;47.378;8.300;2023-11-21T00:21:11;6.57;;;2.50;;
43986;SDS011;29650;47.378;8.300;2023-11-21T00:23:40;7.80;;;2.67;;
43986;SDS011;29650;47.378;8.300;2023-11-21T00:26:07;7.47;;;2.45;;
43986;SDS011;29650;47.378;8.300;2023-11-21T00:28:34;10.35;;;2.42;;
43986;SDS011;29650;47.378;8.300;2023-11-21T00:31:01;8.82;;;2.50;;
43986;SDS011;29650;47.378;8.300;2023-11-21T00:33:29;12.50;;;3.40;;
43986;SDS011;29650;47.378;8.300;2023-11-21T00:35:56;6.65;;;2.30;;
43986;SDS011;29650;47.378;8.300;2023-11-21T00:38:23;9.23;;;2.50;;
43986;SDS011;29650;47.378;8.300;2023-11-21T00:40:51;9.90;;;2.72;;
43986;SDS011;29650;47.378;8.300;2023-11-21T00:43:21;10.45;;;2.80;;
43986;SDS011;29650;47.378;8.300;2023-11-21T00:45:48;10.77;;;2.22;;
43986;SDS011;29650;47.378;8.300;2023-11-21T00:48:15;10.93;;;2.83;;
43986;SDS011;29650;47.378;8.300;2023-11-21T00:50:43;10.73;;;2.75;;
43986;SDS011;29650;47.378;8.300;2023-11-21T00:53:10;8.35;;;2.60;;
43986;SDS011;29650;47.378;8.300;2023-11-21T00:55:37;8.60;;;2.67;;
43986;SDS011;29650;47.378;8.300;2023-11-21T00:58:06;6.55;;;3.03;;
43986;SDS011;29650;47.378;8.300;2023-11-21T01:00:33;9.57;;;2.47;;
43986;SDS011;29650;47.378;8.300;2023-11-21T01:03:00;11.82;;;2.92;;
43986;SDS011;29650;47.378;8.300;2023-11-21T01:05:27;15.65;;;3.00;;
43986;SDS011;29650;47.378;8.300;2023-11-21T01:07:54;8.98;;;2.58;;
43986;SDS011;29650;47.378;8.300;2023-11-21T01:10:21;10.82;;;2.30;;
43986;SDS011;29650;47.378;8.300;2023-11-21T01:12:50;10.93;;;2.80;;
43986;SDS011;29650;47.378;8.300;2023-11-21T01:15:18;5.00;;;2.20;;
43986;SDS011;29650;47.378;8.300;2023-11-21T01:17:45;7.35;;;2.67;;
43986;SDS011;29650;47.378;8.300;2023-11-21T01:20:12;9.65;;;2.10;;
43986;SDS011;29650;47.378;8.300;2023-11-21T01:22:39;8.85;;;2.28;;
43986;SDS011;29650;47.378;8.300;2023-11-21T01:25:08;9.70;;;3.00;;
43986;SDS011;29650;47.378;8.300;2023-11-21T01:27:35;10.45;;;2.75;;
43986;SDS011;29650;47.378;8.300;2023-11-21T01:30:03;8.00;;;2.28;;
43986;SDS011;29650;47.378;8.300;2023-11-21T01:32:34;5.93;;;2.08;;
43986;SDS011;29650;47.378;8.300;2023-11-21T01:35:01;7.55;;;2.28;;
43986;SDS011;29650;47.378;8.300;2023-11-21T01:37:30;8.05;;;2.28;;
43986;SDS011;29650;47.378;8.300;2023-11-21T01:39:58;13.57;;;2.42;;
43986;SDS011;29650;47.378;8.300;2023-11-21T01:42:26;6.13;;;2.50;;
43986;SDS011;29650;47.378;8.300;2023-11-21T01:44:54;9.80;;;2.60;;
43986;SDS011;29650;47.378;8.300;2023-11-21T01:47:21;9.10;;;2.42;;
43986;SDS011;29650;47.378;8.300;2023-11-21T01:49:50;6.43;;;2.35;;
43986;SDS011;29650;47.378;8.300;2023-11-21T01:52:18;7.13;;;2.38;;
43986;SDS011;29650;47.378;8.300;2023-11-21T01:54:45;8.32;;;2.28;;
43986;SDS011;29650;47.378;8.300;2023-11-21T01:57:12;10.63;;;2.80;;
43986;SDS011;29650;47.378;8.300;2023-11-21T01:59:41;4.93;;;2.22;;
43986;SDS011;29650;47.378;8.300;2023-11-21T02:02:08;7.97;;;2.80;;
43986;SDS011;29650;47.378;8.300;2023-11-21T02:04:36;10.20;;;2.58;;
43986;SDS011;29650;47.378;8.300;2023-11-21T02:07:04;9.98;;;2.78;;
43986;SDS011;29650;47.378;8.300;2023-11-21T02:09:32;6.63;;;2.30;;
43986;SDS011;29650;47.378;8.300;2023-11-21T02:11:59;5.75;;;2.33;;
43986;SDS011;29650;47.378;8.300;2023-11-21T02:14:26;8.57;;;2.30;;
43986;SDS011;29650;47.378;8.300;2023-11-21T02:16:54;5.78;;;2.15;;
43986;SDS011;29650;47.378;8.300;2023-11-21T02:19:22;9.55;;;2.35;;
43986;SDS011;29650;47.378;8.300;2023-11-21T02:21:50;6.10;;;2.60;;
43986;SDS011;29650;47.378;8.300;2023-11-21T02:24:20;10.23;;;2.20;;
43986;SDS011;29650;47.378;8.300;2023-11-21T02:26:48;10.23;;;2.72;;
43986;SDS011;29650;47.378;8.300;2023-11-21T02:29:16;15.38;;;2.83;;
43986;SDS011;29650;47.378;8.300;2023-11-21T02:31:47;10.73;;;2.45;;
43986;SDS011;29650;47.378;8.300;2023-11-21T02:34:14;7.28;;;1.88;;
43986;SDS011;29650;47.378;8.300;2023-11-21T02:36:42;8.60;;;1.90;;
43986;SDS011;29650;47.378;8.300;2023-11-21T02:39:09;10.48;;;2.60;;
43986;SDS011;29650;47.378;8.300;2023-11-21T02:41:38;18.20;;;3.10;;
43986;SDS011;29650;47.378;8.300;2023-11-21T02:44:05;11.02;;;2.35;;
43986;SDS011;29650;47.378;8.300;2023-11-21T02:46:32;4.55;;;1.85;;
43986;SDS011;29650;47.378;8.300;2023-11-21T02:49:00;8.30;;;2.22;;
43986;SDS011;29650;47.378;8.300;2023-11-21T02:51:27;7.75;;;2.47;;
43986;SDS011;29650;47.378;8.300;2023-11-21T02:53:54;6.13;;;1.95;;
43986;SDS011;29650;47.378;8.300;2023-11-21T02:56:24;8.95;;;2.38;;
43986;SDS011;29650;47.378;8.300;2023-11-21T02:58:55;8.15;;;2.20;;
43986;SDS011;29650;47.378;8.300;2023-11-21T03:01:22;7.95;;;2.25;;
43986;SDS011;29650;47.378;8.300;2023-11-21T03:03:50;6.93;;;2.90;;
43986;SDS011;29650;47.378;8.300;2023-11-21T03:06:17;8.45;;;2.15;;
43986;SDS011;29650;47.378;8.300;2023-11-21T03:08:44;7.80;;;2.15;;
43986;SDS011;29650;47.378;8.300;2023-11-21T03:11:11;5.50;;;2.00;;
43986;SDS011;29650;47.378;8.300;2023-11-21T03:13:39;8.80;;;2.75;;
43986;SDS011;29650;47.378;8.300;2023-11-21T03:16:09;10.25;;;2.78;;
43986;SDS011;29650;47.378;8.300;2023-11-21T03:21:03;38.33;;;19.63;;
43986;SDS011;29650;47.378;8.300;2023-11-21T03:23:30;39.10;;;21.10;;
43986;SDS011;29650;47.378;8.300;2023-11-21T03:25:57;40.08;;;18.27;;
43986;SDS011;29650;47.378;8.300;2023-11-21T03:28:25;17.98;;;9.32;;
43986;SDS011;29650;47.378;8.300;2023-11-21T03:30:53;12.18;;;5.85;;
43986;SDS011;29650;47.378;8.300;2023-11-21T03:33:22;13.30;;;4.07;;
43986;SDS011;29650;47.378;8.300;2023-11-21T03:35:49;13.85;;;3.63;;
43986;SDS011;29650;47.378;8.300;2023-11-21T03:38:18;8.43;;;2.95;;
43986;SDS011;29650;47.378;8.300;2023-11-21T03:40:45;6.68;;;2.65;;
43986;SDS011;29650;47.378;8.300;2023-11-21T03:43:13;10.43;;;2.85;;
43986;SDS011;29650;47.378;8.300;2023-11-21T03:45:40;5.88;;;2.17;;
43986;SDS011;29650;47.378;8.300;2023-11-21T03:48:07;14.07;;;2.63;;
43986;SDS011;29650;47.378;8.300;2023-11-21T03:50:35;5.45;;;2.08;;
43986;SDS011;29650;47.378;8.300;2023-11-21T03:53:02;7.22;;;2.30;;
43986;SDS011;29650;47.378;8.300;2023-11-21T03:55:29;9.27;;;2.20;;
43986;SDS011;29650;47.378;8.300;2023-11-21T03:57:57;7.40;;;2.08;;
43986;SDS011;29650;47.378;8.300;2023-11-21T04:00:23;6.10;;;2.13;;
43986;SDS011;29650;47.378;8.300;2023-11-21T04:02:52;7.70;;;2.37;;
43986;SDS011;29650;47.378;8.300;2023-11-21T04:05:19;6.68;;;2.72;;
43986;SDS011;29650;47.378;8.300;2023-11-21T04:07:49;9.10;;;2.53;;
43986;SDS011;29650;47.378;8.300;2023-11-21T04:10:16;6.85;;;2.83;;
43986;SDS011;29650;47.378;8.300;2023-11-21T04:12:44;10.73;;;2.55;;
43986;SDS011;29650;47.378;8.300;2023-11-21T04:15:11;3.92;;;1.98;;
43986;SDS011;29650;47.378;8.300;2023-11-21T04:17:39;3.38;;;1.63;;
43986;SDS011;29650;47.378;8.300;2023-11-21T04:20:06;9.85;;;2.70;;
43986;SDS011;29650;47.378;8.300;2023-11-21T04:22:36;5.73;;;1.97;;
43986;SDS011;29650;47.378;8.300;2023-11-21T04:25:07;5.22;;;2.17;;
43986;SDS011;29650;47.378;8.300;2023-11-21T04:27:35;3.72;;;1.15;;
43986;SDS011;29650;47.378;8.300;2023-11-21T04:30:03;4.85;;;1.50;;
43986;SDS011;29650;47.378;8.300;2023-11-21T04:32:30;5.55;;;1.27;;
43986;SDS011;29650;47.378;8.300;2023-11-21T04:34:57;4.53;;;1.10;;
43986;SDS011;29650;47.378;8.300;2023-11-21T04:37:24;3.70;;;1.20;;
43986;SDS011;29650;47.378;8.300;2023-11-21T04:39:51;9.73;;;3.28;;
43986;SDS011;29650;47.378;8.300;2023-11-21T04:42:19;23.95;;;14.02;;
43986;SDS011;29650;47.378;8.300;2023-11-21T04:44:46;21.00;;;10.00;;
43986;SDS011;29650;47.378;8.300;2023-11-21T04:47:15;13.52;;;5.13;;
43986;SDS011;29650;47.378;8.300;2023-11-21T04:52:12;5.97;;;2.75;;
43986;SDS011;29650;47.378;8.300;2023-11-21T04:54:39;11.88;;;6.47;;
43986;SDS011;29650;47.378;8.300;2023-11-21T04:57:06;11.88;;;5.10;;
43986;SDS011;29650;47.378;8.300;2023-11-21T04:59:34;9.73;;;4.20;;
43986;SDS011;29650;47.378;8.300;2023-11-21T05:02:01;9.27;;;3.15;;
43986;SDS011;29650;47.378;8.300;2023-11-21T05:04:30;6.00;;;2.33;;
43986;SDS011;29650;47.378;8.300;2023-11-21T05:06:57;6.18;;;2.58;;
43986;SDS011;29650;47.378;8.300;2023-11-21T05:09:25;6.53;;;2.00;;
43986;SDS011;29650;47.378;8.300;2023-11-21T05:11:53;4.28;;;1.60;;
43986;SDS011;29650;47.378;8.300;2023-11-21T05:14:20;5.80;;;1.73;;
43986;SDS011;29650;47.378;8.300;2023-11-21T05:16:49;2.17;;;1.00;;
43986;SDS011;29650;47.378;8.300;2023-11-21T05:19:17;5.65;;;1.20;;
43986;SDS011;29650;47.378;8.300;2023-11-21T05:21:44;4.47;;;1.67;;
43986;SDS011;29650;47.378;8.300;2023-11-21T05:24:11;3.95;;;1.17;;
43986;SDS011;29650;47.378;8.300;2023-11-21T05:26:38;4.85;;;2.08;;
43986;SDS011;29650;47.378;8.300;2023-11-21T05:29:05;4.13;;;2.35;;
43986;SDS011;29650;47.378;8.300;2023-11-21T05:31:32;5.03;;;1.83;;
43986;SDS011;29650;47.378;8.300;2023-11-21T05:34:00;4.78;;;1.40;;
43986;SDS011;29650;47.378;8.300;2023-11-21T05:36:27;7.00;;;1.65;;
43986;SDS011;29650;47.378;8.300;2023-11-21T05:38:54;4.57;;;1.70;;
43986;SDS011;29650;47.378;8.300;2023-11-21T05:41:21;6.72;;;2.05;;
43986;SDS011;29650;47.378;8.300;2023-11-21T05:43:48;5.45;;;1.83;;
43986;SDS011;29650;47.378;8.300;2023-11-21T05:46:15;9.07;;;1.67;;
43986;SDS011;29650;47.378;8.300;2023-11-21T05:48:43;4.82;;;1.65;;
43986;SDS011;29650;47.378;8.300;2023-11-21T05:51:12;4.15;;;1.40;;
43986;SDS011;29650;47.378;8.300;2023-11-21T05:53:39;2.97;;;1.27;;
43986;SDS011;29650;47.378;8.300;2023-11-21T05:56:06;3.15;;;1.08;;
43986;SDS011;29650;47.378;8.300;2023-11-21T05:58:33;3.20;;;1.30;;
43986;SDS011;29650;47.378;8.300;2023-11-21T06:01:00;3.75;;;1.40;;
43986;SDS011;29650;47.378;8.300;2023-11-21T06:03:27;7.65;;;1.33;;
43986;SDS011;29650;47.378;8.300;2023-11-21T06:05:54;3.55;;;1.30;;
43986;SDS011;29650;47.378;8.300;2023-11-21T06:08:23;3.80;;;1.20;;
43986;SDS011;29650;47.378;8.300;2023-11-21T06:10:50;5.03;;;1.50;;
43986;SDS011;29650;47.378;8.300;2023-11-21T06:13:17;9.27;;;1.42;;
43986;SDS011;29650;47.378;8.300;2023-11-21T06:15:49;4.13;;;1.17;;
43986;SDS011;29650;47.378;8.300;2023-11-21T06:18:16;5.85;;;1.58;;
43986;SDS011;29650;47.378;8.300;2023-11-21T06:20:44;4.05;;;1.40;;
43986;SDS011;29650;47.378;8.300;2023-11-21T06:23:11;3.58;;;1.27;;
43986;SDS011;29650;47.378;8.300;2023-11-21T06:25:40;5.10;;;1.48;;
43986;SDS011;29650;47.378;8.300;2023-11-21T06:28:07;4.80;;;1.60;;
43986;SDS011;29650;47.378;8.300;2023-11-21T06:30:34;3.47;;;1.45;;
43986;SDS011;29650;47.378;8.300;2023-11-21T06:33:01;2.58;;;1.25;;
43986;SDS011;29650;47.378;8.300;2023-11-21T06:35:28;4.82;;;1.63;;
43986;SDS011;29650;47.378;8.300;2023-11-21T06:37:58;5.78;;;1.63;;
43986;SDS011;29650;47.378;8.300;2023-11-21T06:40:25;6.57;;;1.60;;
43986;SDS011;29650;47.378;8.300;2023-11-21T06:42:54;5.80;;;1.70;;
43986;SDS011;29650;47.378;8.300;2023-11-21T06:45:22;3.67;;;1.85;;
43986;SDS011;29650;47.378;8.300;2023-11-21T06:47:49;5.53;;;1.52;;
43986;SDS011;29650;47.378;8.300;2023-11-21T06:50:16;4.72;;;1.60;;
43986;SDS011;29650;47.378;8.300;2023-11-21T06:52:43;9.82;;;1.88;;
43986;SDS011;29650;47.378;8.300;2023-11-21T06:55:10;6.55;;;1.75;;
43986;SDS011;29650;47.378;8.300;2023-11-21T06:57:38;5.57;;;1.92;;
43986;SDS011;29650;47.378;8.300;2023-11-21T07:00:07;5.00;;;2.58;;
43986;SDS011;29650;47.378;8.300;2023-11-21T07:02:35;8.60;;;2.95;;
43986;SDS011;29650;47.378;8.300;2023-11-21T07:05:02;6.30;;;2.72;;
43986;SDS011;29650;47.378;8.300;2023-11-21T07:07:29;6.50;;;2.50;;
43986;SDS011;29650;47.378;8.300;2023-11-21T07:09:56;4.75;;;2.30;;
43986;SDS011;29650;47.378;8.300;2023-11-21T07:12:28;13.80;;;1.98;;
43986;SDS011;29650;47.378;8.300;2023-11-21T07:14:56;6.22;;;1.88;;
43986;SDS011;29650;47.378;8.300;2023-11-21T07:17:24;5.88;;;1.67;;
43986;SDS011;29650;47.378;8.300;2023-11-21T07:19:51;8.85;;;1.65;;
43986;SDS011;29650;47.378;8.300;2023-11-21T07:22:18;6.75;;;1.85;;
43986;SDS011;29650;47.378;8.300;2023-11-21T07:24:48;4.82;;;1.92;;
43986;SDS011;29650;47.378;8.300;2023-11-21T07:27:16;8.13;;;2.05;;
43986;SDS011;29650;47.378;8.300;2023-11-21T07:29:43;4.97;;;2.33;;
43986;SDS011;29650;47.378;8.300;2023-11-21T07:32:10;5.90;;;1.90;;
43986;SDS011;29650;47.378;8.300;2023-11-21T07:34:40;4.03;;;1.90;;
43986;SDS011;29650;47.378;8.300;2023-11-21T07:37:07;7.45;;;1.77;;
43986;SDS011;29650;47.378;8.300;2023-11-21T07:39:35;5.20;;;1.90;;
43986;SDS011;29650;47.378;8.300;2023-11-21T07:42:02;4.55;;;1.73;;
43986;SDS011;29650;47.378;8.300;2023-11-21T07:44:29;7.72;;;1.83;;
43986;SDS011;29650;47.378;8.300;2023-11-21T07:46:56;4.95;;;1.65;;
43986;SDS011;29650;47.378;8.300;2023-11-21T07:49:23;4.40;;;1.50;;
43986;SDS011;29650;47.378;8.300;2023-11-21T07:51:53;6.95;;;2.03;;
43986;SDS011;29650;47.378;8.300;2023-11-21T07:54:20;7.10;;;2.07;;
43986;SDS011;29650;47.378;8.300;2023-11-21T07:56:47;5.88;;;1.83;;
43986;SDS011;29650;47.378;8.300;2023-11-21T07:59:14;10.57;;;1.73;;
43986;SDS011;29650;47.378;8.300;2023-11-21T08:01:42;3.92;;;1.55;;
43986;SDS011;29650;47.378;8.300;2023-11-21T08:04:10;6.40;;;1.63;;
43986;SDS011;29650;47.378;8.300;2023-11-21T08:06:38;3.90;;;1.70;;
43986;SDS011;29650;47.378;8.300;2023-11-21T08:09:08;8.13;;;1.63;;
43986;SDS011;29650;47.378;8.300;2023-11-21T08:11:35;2.70;;;1.37;;
43986;SDS011;29650;47.378;8.300;2023-11-21T08:14:04;6.72;;;1.30;;
43986;SDS011;29650;47.378;8.300;2023-11-21T08:16:31;6.38;;;2.10;;
43986;SDS011;29650;47.378;8.300;2023-11-21T08:18:58;9.00;;;1.90;;
43986;SDS011;29650;47.378;8.300;2023-11-21T08:21:25;8.88;;;2.28;;
43986;SDS011;29650;47.378;8.300;2023-11-21T08:23:54;4.10;;;2.00;;
43986;SDS011;29650;47.378;8.300;2023-11-21T08:26:22;9.27;;;2.00;;
43986;SDS011;29650;47.378;8.300;2023-11-21T08:28:49;8.07;;;1.70;;
43986;SDS011;29650;47.378;8.300;2023-11-21T08:31:23;5.28;;;1.83;;
43986;SDS011;29650;47.378;8.300;2023-11-21T08:33:51;3.67;;;1.65;;
43986;SDS011;29650;47.378;8.300;2023-11-21T08:36:20;4.97;;;2.00;;
43986;SDS011;29650;47.378;8.300;2023-11-21T08:38:48;3.15;;;1.50;;
43986;SDS011;29650;47.378;8.300;2023-11-21T08:41:17;5.38;;;1.90;;
43986;SDS011;29650;47.378;8.300;2023-11-21T08:43:47;9.52;;;2.05;;
43986;SDS011;29650;47.378;8.300;2023-11-21T08:46:15;3.72;;;1.42;;
43986;SDS011;29650;47.378;8.300;2023-11-21T08:48:43;2.58;;;1.50;;
43986;SDS011;29650;47.378;8.300;2023-11-21T08:51:10;4.75;;;1.77;;
43986;SDS011;29650;47.378;8.300;2023-11-21T08:53:39;7.78;;;1.90;;
43986;SDS011;29650;47.378;8.300;2023-11-21T08:56:06;8.90;;;1.42;;
43986;SDS011;29650;47.378;8.300;2023-11-21T08:58:35;3.13;;;1.25;;
43986;SDS011;29650;47.378;8.300;2023-11-21T09:01:04;3.33;;;1.35;;
43986;SDS011;29650;47.378;8.300;2023-11-21T09:03:32;2.70;;;1.02;;
43986;SDS011;29650;47.378;8.300;2023-11-21T09:05:59;4.72;;;1.10;;
43986;SDS011;29650;47.378;8.300;2023-11-21T09:08:27;4.10;;;1.35;;
43986;SDS011;29650;47.378;8.300;2023-11-21T09:10:54;4.22;;;1.20;;
43986;SDS011;29650;47.378;8.300;2023-11-21T09:13:21;7.25;;;1.50;;
43986;SDS011;29650;47.378;8.300;2023-11-21T09:15:50;4.80;;;1.20;;
43986;SDS011;29650;47.378;8.300;2023-11-21T09:18:18;4.40;;;1.02;;
43986;SDS011;29650;47.378;8.300;2023-11-21T09:20:45;3.40;;;1.20;;
43986;SDS011;29650;47.378;8.300;2023-11-21T09:23:12;2.28;;;1.05;;
43986;SDS011;29650;47.378;8.300;2023-11-21T09:25:39;3.50;;;0.95;;
43986;SDS011;29650;47.378;8.300;2023-11-21T09:28:06;6.00;;;1.40;;
43986;SDS011;29650;47.378;8.300;2023-11-21T09:30:33;2.90;;;1.17;;
43986;SDS011;29650;47.378;8.300;2023-11-21T09:33:00;5.47;;;1.50;;
43986;SDS011;29650;47.378;8.300;2023-11-21T09:35:29;4.72;;;1.23;;
43986;SDS011;29650;47.378;8.300;2023-11-21T09:37:56;2.17;;;1.40;;
43986;SDS011;29650;47.378;8.300;2023-11-21T09:40:23;2.80;;;1.27;;
43986;SDS011;29650;47.378;8.300;2023-11-21T09:42:53;3.90;;;1.20;;
43986;SDS011;29650;47.378;8.300;2023-11-21T09:45:24;5.18;;;1.33;;
43986;SDS011;29650;47.378;8.300;2023-11-21T09:47:52;4.50;;;1.52;;
43986;SDS011;29650;47.378;8.300;2023-11-21T09:50:20;3.08;;;1.33;;
43986;SDS011;29650;47.378;8.300;2023-11-21T09:53:02;2.60;;;1.00;;
43986;SDS011;29650;47.378;8.300;2023-11-21T09:55:38;6.35;;;1.42;;
43986;SDS011;29650;47.378;8.300;2023-11-21T09:58:09;4.13;;;1.30;;
43986;SDS011;29650;47.378;8.300;2023-11-21T10:00:38;3.38;;;1.13;;
43986;SDS011;29650;47.378;8.300;2023-11-21T10:03:07;2.75;;;1.02;;
43986;SDS011;29650;47.378;8.300;2023-11-21T10:05:34;2.60;;;1.08;;
43986;SDS011;29650;47.378;8.300;2023-11-21T10:08:03;3.40;;;1.30;;
43986;SDS011;29650;47.378;8.300;2023-11-21T10:10:33;3.25;;;1.23;;
43986;SDS011;29650;47.378;8.300;2023-11-21T10:13:01;2.42;;;1.05;;
43986;SDS011;29650;47.378;8.300;2023-11-21T10:15:31;1.48;;;1.00;;
43986;SDS011;29650;47.378;8.300;2023-11-21T10:18:02;3.17;;;1.17;;
43986;SDS011;29650;47.378;8.300;2023-11-21T10:20:31;1.98;;;1.13;;
43986;SDS011;29650;47.378;8.300;2023-11-21T10:22:59;4.37;;;1.37;;
43986;SDS011;29650;47.378;8.300;2023-11-21T10:25:30;3.70;;;1.00;;
43986;SDS011;29650;47.378;8.300;2023-11-21T10:27:57;2.07;;;1.07;;
43986;SDS011;29650;47.378;8.300;2023-11-21T10:30:32;3.10;;;1.30;;
43986;SDS011;29650;47.378;8.300;2023-11-21T10:33:02;2.65;;;1.10;;
43986;SDS011;29650;47.378;8.300;2023-11-21T10:35:39;2.95;;;1.15;;
43986;SDS011;29650;47.378;8.300;2023-11-21T10:38:13;3.47;;;1.00;;
43986;SDS011;29650;47.378;8.300;2023-11-21T10:40:42;1.65;;;0.98;;
43986;SDS011;29650;47.378;8.300;2023-11-21T10:43:11;4.25;;;1.40;;
43986;SDS011;29650;47.378;8.300;2023-11-21T10:45:40;3.95;;;1.13;;
43986;SDS011;29650;47.378;8.300;2023-11-21T10:48:07;3.92;;;1.10;;
43986;SDS011;29650;47.378;8.300;2023-11-21T10:50:35;3.03;;;1.08;;
43986;SDS011;29650;47.378;8.300;2023-11-21T10:53:03;3.05;;;1.10;;
43986;SDS011;29650;47.378;8.300;2023-11-21T10:55:31;2.30;;;1.10;;
43986;SDS011;29650;47.378;8.300;2023-11-21T10:58:02;4.35;;;1.33;;
43986;SDS011;29650;47.378;8.300;2023-11-21T11:00:31;6.55;;;1.50;;
43986;SDS011;29650;47.378;8.300;2023-11-21T11:02:59;3.67;;;1.20;;
43986;SDS011;29650;47.378;8.300;2023-11-21T11:05:27;1.83;;;1.17;;
43986;SDS011;29650;47.378;8.300;2023-11-21T11:07:57;9.32;;;1.60;;
43986;SDS011;29650;47.378;8.300;2023-11-21T11:10:27;4.50;;;1.42;;
43986;SDS011;29650;47.378;8.300;2023-11-21T11:12:54;4.43;;;1.60;;
43986;SDS011;29650;47.378;8.300;2023-11-21T11:15:23;4.50;;;1.42;;
43986;SDS011;29650;47.378;8.300;2023-11-21T11:17:52;3.35;;;1.35;;
43986;SDS011;29650;47.378;8.300;2023-11-21T11:20:22;3.25;;;1.25;;
43986;SDS011;29650;47.378;8.300;2023-11-21T11:25:35;3.22;;;1.35;;
43986;SDS011;29650;47.378;8.300;2023-11-21T11:28:19;3.30;;;1.53;;
43986;SDS011;29650;47.378;8.300;2023-11-21T11:30:57;3.83;;;1.30;;
43986;SDS011;29650;47.378;8.300;2023-11-21T11:33:31;8.73;;;1.75;;
43986;SDS011;29650;47.378;8.300;2023-11-21T11:36:06;8.23;;;2.05;;
43986;SDS011;29650;47.378;8.300;2023-11-21T11:38:37;6.70;;;2.00;;
43986;SDS011;29650;47.378;8.300;2023-11-21T11:41:05;2.33;;;1.60;;
43986;SDS011;29650;47.378;8.300;2023-11-21T11:43:34;4.60;;;2.20;;
43986;SDS011;29650;47.378;8.300;2023-11-21T11:46:10;6.75;;;2.17;;
43986;SDS011;29650;47.378;8.300;2023-11-21T11:48:40;3.22;;;1.95;;
43986;SDS011;29650;47.378;8.300;2023-11-21T11:51:10;6.38;;;2.10;;
43986;SDS011;29650;47.378;8.300;2023-11-21T11:53:40;6.18;;;2.00;;
43986;SDS011;29650;47.378;8.300;2023-11-21T11:56:21;2.30;;;1.50;;
43986;SDS011;29650;47.378;8.300;2023-11-21T11:58:51;3.92;;;1.73;;
43986;SDS011;29650;47.378;8.300;2023-11-21T12:01:20;4.25;;;2.00;;
43986;SDS011;29650;47.378;8.300;2023-11-21T12:06:55;5.47;;;1.42;;
43986;SDS011;29650;47.378;8.300;2023-11-21T12:09:25;2.65;;;1.48;;
43986;SDS011;29650;47.378;8.300;2023-11-21T12:11:52;3.95;;;1.45;;
43986;SDS011;29650;47.378;8.300;2023-11-21T12:14:21;3.80;;;1.58;;
43986;SDS011;29650;47.378;8.300;2023-11-21T12:16:50;5.03;;;1.73;;
43986;SDS011;29650;47.378;8.300;2023-11-21T12:19:18;4.05;;;1.60;;
43986;SDS011;29650;47.378;8.300;2023-11-21T12:21:47;7.03;;;1.58;;
43986;SDS011;29650;47.378;8.300;2023-11-21T12:24:15;2.80;;;1.55;;
43986;SDS011;29650;47.378;8.300;2023-11-21T12:26:42;5.68;;;1.73;;
43986;SDS011;29650;47.378;8.300;2023-11-21T12:29:10;3.20;;;1.73;;
43986;SDS011;29650;47.378;8.300;2023-11-21T12:31:37;5.15;;;1.90;;
43986;SDS011;29650;47.378;8.300;2023-11-21T12:34:06;4.00;;;1.77;;
43986;SDS011;29650;47.378;8.300;2023-11-21T12:36:36;3.88;;;1.70;;
43986;SDS011;29650;47.378;8.300;2023-11-21T12:39:04;2.97;;;1.73;;
43986;SDS011;29650;47.378;8.300;2023-11-21T12:41:31;4.97;;;2.03;;
43986;SDS011;29650;47.378;8.300;2023-11-21T12:43:58;4.05;;;1.40;;
43986;SDS011;29650;47.378;8.300;2023-11-21T12:46:25;4.97;;;1.83;;
43986;SDS011;29650;47.378;8.300;2023-11-21T12:48:56;2.72;;;1.77;;
43986;SDS011;29650;47.378;8.300;2023-11-21T12:51:25;3.50;;;1.60;;
43986;SDS011;29650;47.378;8.300;2023-11-21T12:53:52;1.85;;;1.63;;
43986;SDS011;29650;47.378;8.300;2023-11-21T12:56:21;3.45;;;1.63;;
43986;SDS011;29650;47.378;8.300;2023-11-21T12:58:49;5.40;;;1.80;;
43986;SDS011;29650;47.378;8.300;2023-11-21T13:01:19;3.65;;;1.52;;
43986;SDS011;29650;47.378;8.300;2023-11-21T13:03:48;6.72;;;1.75;;
43986;SDS011;29650;47.378;8.300;2023-11-21T13:06:17;2.70;;;1.83;;
43986;SDS011;29650;47.378;8.300;2023-11-21T13:08:51;1.80;;;1.70;;
43986;SDS011;29650;47.378;8.300;2023-11-21T13:13:45;1.90;;;1.67;;
43986;SDS011;29650;47.378;8.300;2023-11-21T13:16:14;2.30;;;1.48;;
43986;SDS011;29650;47.378;8.300;2023-11-21T13:18:41;1.60;;;1.25;;
43986;SDS011;29650;47.378;8.300;2023-11-21T13:21:09;2.55;;;1.40;;
43986;SDS011;29650;47.378;8.300;2023-11-21T13:26:08;1.73;;;1.20;;
43986;SDS011;29650;47.378;8.300;2023-11-21T13:28:36;3.05;;;1.27;;
43986;SDS011;29650;47.378;8.300;2023-11-21T13:31:05;1.35;;;1.20;;
43986;SDS011;29650;47.378;8.300;2023-11-21T13:33:46;1.60;;;1.45;;
43986;SDS011;29650;47.378;8.300;2023-11-21T13:36:19;2.58;;;1.13;;
43986;SDS011;29650;47.378;8.300;2023-11-21T13:38:48;1.95;;;1.17;;
43986;SDS011;29650;47.378;8.300;2023-11-21T13:41:17;2.03;;;1.10;;
43986;SDS011;29650;47.378;8.300;2023-11-21T13:43:44;2.50;;;1.20;;
43986;SDS011;29650;47.378;8.300;2023-11-21T13:46:17;1.70;;;0.90;;
43986;SDS011;29650;47.378;8.300;2023-11-21T13:48:47;1.60;;;1.30;;
43986;SDS011;29650;47.378;8.300;2023-11-21T13:51:16;2.60;;;1.20;;
43986;SDS011;29650;47.378;8.300;2023-11-21T13:53:43;2.38;;;0.88;;
43986;SDS011;29650;47.378;8.300;2023-11-21T13:56:13;1.80;;;1.15;;
43986;SDS011;29650;47.378;8.300;2023-11-21T13:58:45;1.75;;;1.08;;
43986;SDS011;29650;47.378;8.300;2023-11-21T14:01:16;1.40;;;1.00;;
43986;SDS011;29650;47.378;8.300;2023-11-21T14:04:06;1.42;;;1.00;;
43986;SDS011;29650;47.378;8.300;2023-11-21T14:09:14;3.03;;;1.40;;
43986;SDS011;29650;47.378;8.300;2023-11-21T14:11:49;1.38;;;1.23;;
43986;SDS011;29650;47.378;8.300;2023-11-21T14:14:19;4.55;;;1.42;;
43986;SDS011;29650;47.378;8.300;2023-11-21T14:16:47;1.77;;;1.33;;
43986;SDS011;29650;47.378;8.300;2023-11-21T14:19:14;1.85;;;1.42;;
43986;SDS011;29650;47.378;8.300;2023-11-21T14:21:42;2.88;;;1.35;;
43986;SDS011;29650;47.378;8.300;2023-11-21T14:24:10;2.55;;;1.27;;
43986;SDS011;29650;47.378;8.300;2023-11-21T14:26:38;2.67;;;1.42;;
43986;SDS011;29650;47.378;8.300;2023-11-21T14:29:07;3.10;;;1.35;;
43986;SDS011;29650;47.378;8.300;2023-11-21T14:34:04;1.30;;;1.20;;
43986;SDS011;29650;47.378;8.300;2023-11-21T14:36:32;2.17;;;1.30;;
43986;SDS011;29650;47.378;8.300;2023-11-21T14:38:59;3.47;;;1.25;;
43986;SDS011;29650;47.378;8.300;2023-11-21T14:41:26;2.17;;;1.40;;
43986;SDS011;29650;47.378;8.300;2023-11-21T14:43:54;2.53;;;1.15;;
43986;SDS011;29650;47.378;8.300;2023-11-21T14:46:22;1.88;;;1.20;;
43986;SDS011;29650;47.378;8.300;2023-11-21T14:48:51;2.15;;;1.40;;
43986;SDS011;29650;47.378;8.300;2023-11-21T14:51:26;1.35;;;1.13;;
43986;SDS011;29650;47.378;8.300;2023-11-21T14:53:56;4.47;;;1.30;;
43986;SDS011;29650;47.378;8.300;2023-11-21T14:56:31;2.45;;;1.50;;
43986;SDS011;29650;47.378;8.300;2023-11-21T14:58:59;6.13;;;1.70;;
43986;SDS011;29650;47.378;8.300;2023-11-21T15:01:31;4.10;;;1.33;;
43986;SDS011;29650;47.378;8.300;2023-11-21T15:04:11;1.67;;;1.20;;
43986;SDS011;29650;47.378;8.300;2023-11-21T15:06:48;1.98;;;1.35;;
43986;SDS011;29650;47.378;8.300;2023-11-21T15:09:18;1.48;;;1.20;;
43986;SDS011;29650;47.378;8.300;2023-11-21T15:12:06;1.48;;;1.35;;
43986;SDS011;29650;47.378;8.300;2023-11-21T15:14:40;1.88;;;1.38;;